createdAt,value
2022-12-18T00:01:49.616Z,13.45
2022-12-18T00:04:52.871Z,14.05
2022-12-18T00:07:56.045Z,13.82
2022-12-18T00:11:07.040Z,13.25
2022-12-18T00:14:14.412Z,14.10
2022-12-18T00:17:17.599Z,14.07
2022-12-18T00:20:26.527Z,13.57
2022-12-18T00:23:30.607Z,13.52
2022-12-18T00:26:35.811Z,13.10
2022-12-18T00:29:39.205Z,13.93
2022-12-18T00:32:42.363Z,14.35
2022-12-18T00:35:45.563Z,14.63
2022-12-18T00:38:50.005Z,13.57
2022-12-18T00:42:12.974Z,13.30
2022-12-18T00:45:16.584Z,13.43
2022-12-18T00:48:19.720Z,13.25
2022-12-18T00:51:23.060Z,14.07
2022-12-18T00:54:26.462Z,13.02
2022-12-18T00:57:29.620Z,12.38
2022-12-18T01:00:32.868Z,11.87
2022-12-18T01:03:36.787Z,13.13
2022-12-18T01:06:40.848Z,12.48
2022-12-18T01:09:44.004Z,12.52
2022-12-18T01:12:47.213Z,12.63
2022-12-18T01:15:53.820Z,13.02
2022-12-18T01:18:57.187Z,13.85
2022-12-18T01:22:00.472Z,12.60
2022-12-18T01:25:05.394Z,13.93
2022-12-18T01:28:08.599Z,13.00
2022-12-18T01:31:20.445Z,13.23
2022-12-18T01:34:24.336Z,13.13
2022-12-18T01:37:27.612Z,12.60
2022-12-18T01:40:30.794Z,13.55
2022-12-18T01:43:55.783Z,13.38
2022-12-18T01:46:58.983Z,13.40
2022-12-18T01:50:09.685Z,13.70
2022-12-18T01:53:18.107Z,14.73
2022-12-18T01:56:22.719Z,14.38
2022-12-18T01:59:26.746Z,13.65
2022-12-18T02:02:31.637Z,13.27
2022-12-18T02:05:55.557Z,13.18
2022-12-18T02:09:13.471Z,12.55
2022-12-18T02:12:26.232Z,12.68
2022-12-18T02:15:52.531Z,12.52
2022-12-18T02:19:07.396Z,11.10
2022-12-18T02:22:28.668Z,14.73
2022-12-18T02:25:53.739Z,11.90
2022-12-18T02:29:07.060Z,12.68
2022-12-18T02:32:18.877Z,11.65
2022-12-18T02:35:28.548Z,12.83
2022-12-18T02:38:36.026Z,12.15
2022-12-18T02:41:46.043Z,13.02
2022-12-18T02:44:52.081Z,13.27
2022-12-18T02:48:01.114Z,12.38
2022-12-18T02:51:04.379Z,13.73
2022-12-18T02:54:21.655Z,13.90
2022-12-18T02:57:45.732Z,13.37
2022-12-18T03:00:58.216Z,13.63
2022-12-18T03:04:11.092Z,12.95
2022-12-18T03:07:47.521Z,13.33
2022-12-18T03:11:04.087Z,13.20
2022-12-18T03:14:10.532Z,12.70
2022-12-18T03:17:18.591Z,12.88
2022-12-18T03:20:25.323Z,13.82
2022-12-18T03:23:35.648Z,14.13
2022-12-18T03:26:44.687Z,14.38
2022-12-18T03:29:56.634Z,13.57
2022-12-18T03:33:08.898Z,13.77
2022-12-18T03:36:14.411Z,14.55
2022-12-18T03:39:17.868Z,14.43
2022-12-18T03:42:38.941Z,14.50
2022-12-18T03:45:58.828Z,14.82
2022-12-18T03:49:23.611Z,15.63
2022-12-18T03:52:58.687Z,14.88
2022-12-18T03:56:03.952Z,15.25
2022-12-18T03:59:21.181Z,14.60
2022-12-18T04:02:26.324Z,14.60
2022-12-18T04:05:34.481Z,15.23
2022-12-18T04:08:39.641Z,15.52
2022-12-18T04:11:47.487Z,14.77
2022-12-18T04:14:52.191Z,15.85
2022-12-18T04:17:55.543Z,14.98
2022-12-18T04:21:01.388Z,16.45
2022-12-18T04:24:07.623Z,15.70
2022-12-18T04:27:13.596Z,15.77
2022-12-18T04:30:20.961Z,15.60
2022-12-18T04:33:24.371Z,15.60
2022-12-18T04:36:30.379Z,16.50
2022-12-18T04:39:33.610Z,15.77
2022-12-18T04:42:42.404Z,16.63
2022-12-18T04:45:45.608Z,14.65
2022-12-18T04:48:48.918Z,15.98
2022-12-18T04:51:52.680Z,15.45
2022-12-18T04:54:55.844Z,15.75
2022-12-18T04:57:59.011Z,15.70
2022-12-18T05:01:03.770Z,15.45
2022-12-18T05:04:07.198Z,17.03
2022-12-18T05:07:10.401Z,16.30
2022-12-18T05:10:14.001Z,16.02
2022-12-18T05:13:17.162Z,14.73
2022-12-18T05:16:20.392Z,16.83
2022-12-18T05:19:23.624Z,15.55
2022-12-18T05:22:26.958Z,16.50
2022-12-18T05:25:30.100Z,17.48
2022-12-18T05:28:36.352Z,15.20
2022-12-18T05:31:40.209Z,16.50
2022-12-18T05:34:43.444Z,15.70
2022-12-18T05:37:46.741Z,15.85
2022-12-18T05:40:53.563Z,15.98
2022-12-18T05:43:56.752Z,15.47
2022-12-18T05:46:59.940Z,16.35
2022-12-18T05:50:03.176Z,15.95
2022-12-18T05:53:07.334Z,16.45
2022-12-18T05:56:14.232Z,15.75
2022-12-18T05:59:17.891Z,16.13
2022-12-18T06:02:22.089Z,16.85
2022-12-18T06:05:25.709Z,16.73
2022-12-18T06:08:29.076Z,16.30
2022-12-18T06:11:32.310Z,15.30
2022-12-18T06:14:35.446Z,16.87
2022-12-18T06:17:38.739Z,15.45
2022-12-18T06:20:42.492Z,16.25
2022-12-18T06:23:45.689Z,16.73
2022-12-18T06:26:48.838Z,16.25
2022-12-18T06:29:52.147Z,16.33
2022-12-18T06:32:56.914Z,15.50
2022-12-18T06:36:06.447Z,17.20
2022-12-18T06:39:09.656Z,17.10
2022-12-18T06:42:13.246Z,16.85
2022-12-18T06:45:16.896Z,17.50
2022-12-18T06:48:21.065Z,17.55
2022-12-18T06:51:25.327Z,16.88
2022-12-18T06:54:28.605Z,16.38
2022-12-18T06:57:31.858Z,18.15
2022-12-18T07:00:35.293Z,17.08
2022-12-18T07:03:40.990Z,17.60
2022-12-18T07:06:44.495Z,17.27
2022-12-18T07:09:47.730Z,17.02
2022-12-18T07:12:51.119Z,16.60
2022-12-18T07:15:54.255Z,17.17
2022-12-18T07:18:57.862Z,18.65
2022-12-18T07:22:01.423Z,18.10
2022-12-18T07:25:04.960Z,18.38
2022-12-18T07:28:10.592Z,17.67
2022-12-18T07:31:22.844Z,18.95
2022-12-18T07:34:26.439Z,18.05
2022-12-18T07:37:29.665Z,18.37
2022-12-18T07:40:33.568Z,19.45
2022-12-18T07:43:37.577Z,19.27
2022-12-18T07:46:41.335Z,18.23
2022-12-18T07:49:44.535Z,19.15
2022-12-18T07:52:47.730Z,17.98
2022-12-18T07:56:25.583Z,18.80
2022-12-18T07:59:19.207Z,18.95
2022-12-18T08:02:22.678Z,18.25
2022-12-18T08:05:26.320Z,20.92
2022-12-18T08:08:30.376Z,20.63
2022-12-18T08:11:33.658Z,21.17
2022-12-18T08:14:36.776Z,19.35
2022-12-18T08:17:40.034Z,20.27
2022-12-18T08:20:45.998Z,21.15
2022-12-18T08:23:51.296Z,20.70
2022-12-18T08:27:20.769Z,18.35
2022-12-18T08:30:18.132Z,20.10
2022-12-18T08:33:21.456Z,18.35
2022-12-18T08:36:25.531Z,19.52
2022-12-18T08:39:30.269Z,19.20
2022-12-18T08:42:52.091Z,18.20
2022-12-18T08:45:55.868Z,20.05
2022-12-18T08:48:59.180Z,20.00
2022-12-18T08:52:03.776Z,19.90
2022-12-18T08:55:07.739Z,20.85
2022-12-18T08:58:10.959Z,18.85
2022-12-18T09:01:14.829Z,20.85
2022-12-18T09:04:18.272Z,20.65
2022-12-18T09:07:21.515Z,19.63
2022-12-18T09:10:24.658Z,18.57
2022-12-18T09:13:27.939Z,19.38
2022-12-18T09:16:32.996Z,19.65
2022-12-18T09:19:36.398Z,19.00
2022-12-18T09:22:42.566Z,17.73
2022-12-18T09:25:45.763Z,19.20
2022-12-18T09:28:50.056Z,21.20
2022-12-18T09:31:53.361Z,18.90
2022-12-18T09:34:56.593Z,19.40
2022-12-18T09:37:59.793Z,20.67
2022-12-18T09:41:32.054Z,19.77
2022-12-18T09:44:45.501Z,18.08
2022-12-18T09:47:51.091Z,18.70
2022-12-18T09:51:02.030Z,18.30
2022-12-18T09:54:11.706Z,17.52
2022-12-18T09:57:18.412Z,20.25
2022-12-18T10:00:24.424Z,18.05
2022-12-18T10:03:27.755Z,18.30
2022-12-18T10:07:13.554Z,20.38
2022-12-18T10:10:27.906Z,17.52
2022-12-18T10:14:05.663Z,15.00
2022-12-18T10:17:31.028Z,12.48
2022-12-18T10:20:46.065Z,12.38
2022-12-18T10:24:22.154Z,11.80
2022-12-18T10:27:27.798Z,12.40
2022-12-18T10:30:31.059Z,11.65
2022-12-18T10:33:35.481Z,11.48
2022-12-18T10:36:38.995Z,12.85
2022-12-18T10:39:42.294Z,11.48
2022-12-18T10:42:45.582Z,11.93
2022-12-18T10:46:14.270Z,11.30
2022-12-18T10:49:24.642Z,11.70
2022-12-18T10:52:28.411Z,13.10
2022-12-18T10:55:45.215Z,12.57
2022-12-18T10:59:05.664Z,12.20
2022-12-18T11:02:29.946Z,11.82
2022-12-18T11:05:37.877Z,11.80
2022-12-18T11:08:42.757Z,12.50
2022-12-18T11:11:54.604Z,12.30
2022-12-18T11:15:01.402Z,12.25
2022-12-18T11:18:04.711Z,12.40
2022-12-18T11:21:14.356Z,12.23
2022-12-18T11:24:23.358Z,11.18
2022-12-18T11:27:27.187Z,12.30
2022-12-18T11:30:31.651Z,10.50
2022-12-18T11:33:35.178Z,10.23
2022-12-18T11:36:43.071Z,10.00
2022-12-18T11:40:07.598Z,11.55
2022-12-18T11:43:23.824Z,10.50
2022-12-18T11:46:37.729Z,10.88
2022-12-18T11:49:42.602Z,10.17
2022-12-18T11:52:52.779Z,11.60
2022-12-18T11:56:23.148Z,11.63
2022-12-18T11:59:32.004Z,11.13
2022-12-18T12:02:38.303Z,12.75
2022-12-18T12:05:47.419Z,12.38
2022-12-18T12:09:12.961Z,12.38
2022-12-18T12:12:31.648Z,12.82
2022-12-18T12:15:41.708Z,13.65
2022-12-18T12:19:17.625Z,11.38
2022-12-18T12:22:31.589Z,11.83
2022-12-18T12:26:08.030Z,12.13
2022-12-18T12:29:48.923Z,11.77
2022-12-18T12:33:19.382Z,11.63
2022-12-18T12:36:40.260Z,10.50
2022-12-18T12:39:47.893Z,10.45
2022-12-18T12:43:20.744Z,10.80
2022-12-18T12:46:26.017Z,9.48
2022-12-18T12:49:36.322Z,10.43
2022-12-18T12:52:53.944Z,9.80
2022-12-18T12:55:58.048Z,9.33
2022-12-18T12:59:13.227Z,11.48
2022-12-18T13:02:25.646Z,9.77
2022-12-18T13:05:43.954Z,11.50
2022-12-18T13:09:01.642Z,10.93
2022-12-18T13:12:28.704Z,10.70
2022-12-18T13:15:40.030Z,10.27
2022-12-18T13:18:51.207Z,10.43
2022-12-18T13:21:56.887Z,10.60
2022-12-18T13:25:00.545Z,11.20
2022-12-18T13:28:03.750Z,10.03
2022-12-18T13:31:06.972Z,10.38
2022-12-18T13:34:28.436Z,10.90
2022-12-18T13:37:44.471Z,12.37
2022-12-18T13:40:47.671Z,12.30
2022-12-18T13:44:11.740Z,12.68
2022-12-18T13:47:38.441Z,12.82
2022-12-18T13:50:42.033Z,12.10
2022-12-18T13:53:51.390Z,11.38
2022-12-18T13:56:54.617Z,11.75
2022-12-18T13:59:59.487Z,12.57
2022-12-18T14:03:03.039Z,12.20
2022-12-18T14:06:09.977Z,11.98
2022-12-18T14:09:21.771Z,12.10
2022-12-18T14:12:46.647Z,12.48
2022-12-18T14:15:52.292Z,13.52
2022-12-18T14:19:08.436Z,12.55
2022-12-18T14:22:31.485Z,13.13
2022-12-18T14:25:34.684Z,13.38
2022-12-18T14:28:45.168Z,13.82
2022-12-18T14:32:05.160Z,13.70
2022-12-18T14:35:16.021Z,13.90
2022-12-18T14:38:24.473Z,14.35
2022-12-18T14:41:29.753Z,13.60
2022-12-18T14:44:44.172Z,14.82
2022-12-18T14:47:53.702Z,14.55
2022-12-18T14:51:17.727Z,13.90
2022-12-18T14:54:22.482Z,14.77
2022-12-18T14:57:33.031Z,15.73
2022-12-18T15:00:43.572Z,15.85
2022-12-18T15:03:46.915Z,15.60
2022-12-18T15:06:52.540Z,15.65
2022-12-18T15:10:35.432Z,15.35
2022-12-18T15:13:39.022Z,14.93
2022-12-18T15:16:55.508Z,15.70
2022-12-18T15:20:11.823Z,15.50
2022-12-18T15:23:29.180Z,16.55
2022-12-18T15:26:39.572Z,16.98
2022-12-18T15:29:43.373Z,17.30
2022-12-18T15:32:47.491Z,18.40
2022-12-18T15:35:58.882Z,18.00
2022-12-18T15:39:05.154Z,18.20
2022-12-18T15:42:29.700Z,18.55
2022-12-18T15:45:33.913Z,18.40
2022-12-18T15:49:02.686Z,18.48
2022-12-18T15:52:07.170Z,18.45
2022-12-18T15:55:37.831Z,18.92
2022-12-18T15:58:42.076Z,20.73
2022-12-18T16:01:48.276Z,18.70
2022-12-18T16:04:53.221Z,21.15
2022-12-18T16:07:56.792Z,21.70
2022-12-18T16:11:00.900Z,20.38
2022-12-18T16:14:27.726Z,20.83
2022-12-18T16:17:30.965Z,22.10
2022-12-18T16:20:35.625Z,21.70
2022-12-18T16:23:39.341Z,22.58
2022-12-18T16:26:43.172Z,21.60
2022-12-18T16:29:47.156Z,20.38
2022-12-18T16:32:51.237Z,19.77
2022-12-18T16:35:54.766Z,20.75
2022-12-18T16:39:01.984Z,20.40
2022-12-18T16:42:17.626Z,21.25
2022-12-18T16:45:21.126Z,21.77
2022-12-18T16:48:25.919Z,23.00
2022-12-18T16:51:29.980Z,22.48
2022-12-18T16:54:36.792Z,22.67
2022-12-18T16:57:40.227Z,22.05
2022-12-18T17:00:43.961Z,21.80
2022-12-18T17:03:56.625Z,20.35
2022-12-18T17:07:00.168Z,20.35
2022-12-18T17:10:03.889Z,20.67
2022-12-18T17:13:08.168Z,22.00
2022-12-18T17:16:12.069Z,21.25
2022-12-18T17:19:17.611Z,20.45
2022-12-18T17:22:23.402Z,23.23
2022-12-18T17:25:27.195Z,23.50
2022-12-18T17:28:31.289Z,23.90
2022-12-18T17:31:35.130Z,22.63
2022-12-18T17:34:38.808Z,22.23
2022-12-18T17:37:42.071Z,21.38
2022-12-18T17:40:46.554Z,22.60
2022-12-18T17:43:57.627Z,22.15
2022-12-18T17:47:01.536Z,21.60
2022-12-18T17:50:05.263Z,20.58
2022-12-18T17:53:08.823Z,19.00
2022-12-18T17:56:14.491Z,20.42
2022-12-18T17:59:18.319Z,19.85
2022-12-18T18:02:22.360Z,19.33
2022-12-18T18:05:27.441Z,21.13
2022-12-18T18:08:35.969Z,19.95
2022-12-18T18:11:58.304Z,19.90
2022-12-18T18:15:01.818Z,18.33
2022-12-18T18:18:05.932Z,18.77
2022-12-18T18:21:09.921Z,17.55
2022-12-18T18:24:16.569Z,17.85
2022-12-18T18:27:20.204Z,17.73
2022-12-18T18:30:23.848Z,17.35
2022-12-18T18:33:27.233Z,17.60
2022-12-18T18:36:30.881Z,17.02
2022-12-18T18:39:34.376Z,17.08
2022-12-18T18:42:38.375Z,16.93
2022-12-18T18:45:41.826Z,15.77
2022-12-18T18:48:49.921Z,16.08
2022-12-18T18:51:53.548Z,15.63
2022-12-18T18:55:12.704Z,15.27
2022-12-18T18:58:17.012Z,16.70
2022-12-18T19:01:22.367Z,15.82
2022-12-18T19:04:26.135Z,16.63
2022-12-18T19:07:31.134Z,15.73
2022-12-18T19:10:39.735Z,18.70
2022-12-18T19:13:45.940Z,16.20
2022-12-18T19:16:49.865Z,15.23
2022-12-18T19:19:53.396Z,16.92
2022-12-18T19:22:57.005Z,17.83
2022-12-18T19:26:27.017Z,16.95
2022-12-18T19:29:25.948Z,17.55
2022-12-18T19:32:29.858Z,16.13
2022-12-18T19:35:33.436Z,17.37
2022-12-18T19:38:39.597Z,17.23
2022-12-18T19:41:46.965Z,17.48
2022-12-18T19:44:50.408Z,17.00
2022-12-18T19:47:53.828Z,18.00
2022-12-18T19:50:57.281Z,16.65
2022-12-18T19:54:02.652Z,17.55
2022-12-18T19:57:07.820Z,17.08
2022-12-18T20:00:18.365Z,17.92
2022-12-18T20:03:30.417Z,18.13
2022-12-18T20:06:36.984Z,16.53
2022-12-18T20:09:40.321Z,16.42
2022-12-18T20:12:44.351Z,16.80
2022-12-18T20:15:47.736Z,17.50
2022-12-18T20:18:51.393Z,17.27
2022-12-18T20:21:58.663Z,16.83
2022-12-18T20:25:02.109Z,16.85
2022-12-18T20:28:05.928Z,16.00
2022-12-18T20:31:13.246Z,16.75
2022-12-18T20:34:17.689Z,17.95
2022-12-18T20:37:21.743Z,17.80
2022-12-18T20:40:26.306Z,17.80
2022-12-18T20:43:31.125Z,17.45
2022-12-18T20:46:34.308Z,17.70
2022-12-18T20:49:38.023Z,17.90
2022-12-18T20:52:43.387Z,17.80
2022-12-18T20:55:47.125Z,16.40
2022-12-18T20:58:54.816Z,17.05
2022-12-18T21:01:58.429Z,17.52
2022-12-18T21:05:01.743Z,17.35
2022-12-18T21:08:05.228Z,18.17
2022-12-18T21:11:35.196Z,17.52
2022-12-18T21:14:38.365Z,17.33
2022-12-18T21:17:45.118Z,17.27
2022-12-18T21:20:49.148Z,18.20
2022-12-18T21:23:52.397Z,18.85
2022-12-18T21:26:55.827Z,18.38
2022-12-18T21:29:59.206Z,19.58
2022-12-18T21:33:02.413Z,19.83
2022-12-18T21:36:09.455Z,20.52
2022-12-18T21:39:13.451Z,20.83
2022-12-18T21:42:34.891Z,21.08
2022-12-18T21:45:38.203Z,19.85
2022-12-18T21:48:43.424Z,20.67
2022-12-18T21:51:47.945Z,21.58
2022-12-18T21:54:51.279Z,21.40
2022-12-18T21:57:54.728Z,20.65
2022-12-18T22:00:58.023Z,20.65
2022-12-18T22:04:01.192Z,22.13
2022-12-18T22:07:05.460Z,20.73
2022-12-18T22:10:09.078Z,21.17
2022-12-18T22:13:12.379Z,21.58
2022-12-18T22:16:15.559Z,20.13
2022-12-18T22:19:19.631Z,20.40
2022-12-18T22:22:22.907Z,21.05
2022-12-18T22:25:26.291Z,20.40
2022-12-18T22:28:50.651Z,21.40
2022-12-18T22:31:53.898Z,21.52
2022-12-18T22:35:00.551Z,20.90
2022-12-18T22:38:08.344Z,19.80
2022-12-18T22:41:11.486Z,20.07
2022-12-18T22:44:15.024Z,20.70
2022-12-18T22:47:24.251Z,20.70
2022-12-18T22:50:33.919Z,19.90
2022-12-18T22:53:37.015Z,21.17
2022-12-18T22:56:40.559Z,20.13
2022-12-18T22:59:43.795Z,19.88
2022-12-18T23:02:47.182Z,22.70
2022-12-18T23:05:50.608Z,20.55
2022-12-18T23:08:58.012Z,20.80
2022-12-18T23:12:01.425Z,20.83
2022-12-18T23:15:05.923Z,21.67
2022-12-18T23:18:09.128Z,20.65
2022-12-18T23:21:16.071Z,21.37
2022-12-18T23:24:20.470Z,21.70
2022-12-18T23:27:23.608Z,20.13
2022-12-18T23:30:27.031Z,21.13
2022-12-18T23:33:30.280Z,20.60
2022-12-18T23:36:45.308Z,21.33
2022-12-18T23:39:49.904Z,21.45
2022-12-18T23:42:53.085Z,21.17
2022-12-18T23:45:56.375Z,21.25
2022-12-18T23:49:01.505Z,21.40
2022-12-18T23:52:04.775Z,22.10
2022-12-18T23:55:08.380Z,23.05
2022-12-18T23:58:18.570Z,24.15
